Time;durP1;ratioP1;P1;durP2;ratioP2;P2;SDS_P1;SDS_P2;PMS_P1;PMS_P2;Temp;Humidity;BMP_temperature;BMP_pressure;BME280_temperature;BME280_humidity;BME280_pressure;Samples;Min_cycle;Max_cycle;Signal;HPM_P1;HPM_P2
2022/06/01 06:25:26;;;;;;;;;3.00;3.00;;;;;16.80;94.35;100460.16;6093577;22;46224;-91
2022/06/01 06:27:51;;;;;;;;;2.00;2.00;;;;;16.88;94.57;100466.44;5071817;28;49115;-92
2022/06/01 06:30:19;;;;;;;;;4.00;3.00;;;;;16.95;94.26;100468.34;5053409;28;45320;-92
2022/06/01 06:32:44;;;;;;;;;3.00;3.00;;;;;16.99;94.00;100463.97;5050914;28;48175;-93
2022/06/01 06:35:10;;;;;;;;;2.33;2.33;;;;;17.09;93.90;100467.63;5036220;28;45395;-91
2022/06/01 06:37:36;;;;;;;;;4.33;3.00;;;;;17.14;93.26;100470.34;5064820;28;45557;-91
2022/06/01 06:40:01;;;;;;;;;2.00;2.00;;;;;17.17;92.54;100481.94;5070275;28;45292;-91
2022/06/01 06:42:26;;;;;;;;;2.00;2.00;;;;;17.22;91.98;100474.03;5058409;28;48205;-92
2022/06/01 06:44:52;;;;;;;;;2.00;2.00;;;;;17.27;91.84;100472.31;5053471;28;47459;-91
2022/06/01 06:47:17;;;;;;;;;3.33;3.33;;;;;17.35;91.82;100482.13;5074834;28;45496;-90
2022/06/01 06:49:42;;;;;;;;;5.00;4.00;;;;;17.42;91.54;100481.38;5073649;28;45527;-90
2022/06/01 06:52:08;;;;;;;;;3.00;3.00;;;;;17.50;91.91;100473.47;5056898;28;48090;-92
2022/06/01 06:54:34;;;;;;;;;3.00;3.00;;;;;17.59;91.34;100478.03;5054561;28;45682;-92
2022/06/01 06:56:59;;;;;;;;;3.67;2.67;;;;;17.67;90.88;100486.06;5072071;28;47123;-93
2022/06/01 06:59:26;;;;;;;;;3.33;3.33;;;;;17.74;91.22;100483.50;5046799;28;45418;-91
2022/06/01 07:01:51;;;;;;;;;2.00;2.00;;;;;17.80;90.89;100480.03;5072908;28;47220;-92
2022/06/01 07:04:18;;;;;;;;;3.00;3.00;;;;;17.90;90.61;100474.81;5059689;28;45381;-92
2022/06/01 07:06:43;;;;;;;;;3.00;3.00;;;;;17.94;91.11;100480.16;5092784;28;45423;-92
2022/06/01 07:09:09;;;;;;;;;4.33;4.00;;;;;18.04;91.04;100475.84;5082405;28;45451;-90
2022/06/01 07:11:35;;;;;;;;;4.00;4.00;;;;;18.11;90.67;100474.16;5031786;28;47284;-93
2022/06/01 07:14:01;;;;;;;;;4.67;4.67;;;;;18.20;90.74;100476.03;5070072;28;45432;-93
2022/06/01 07:16:30;;;;;;;;;3.00;3.00;;;;;18.27;89.56;100485.81;5081581;28;45395;-93
2022/06/01 07:18:58;;;;;;;;;4.67;3.67;;;;;18.33;89.61;100478.78;5093047;28;45190;-92
2022/06/01 07:21:24;;;;;;;;;7.67;3.00;;;;;18.39;89.67;100476.19;5073484;28;45259;-94
2022/06/01 07:23:50;;;;;;;;;4.00;3.00;;;;;18.51;89.45;100481.63;5066599;28;44739;-92
2022/06/01 07:26:28;;;;;;;;;2.67;2.67;;;;;18.62;89.43;100479.03;5074120;28;45502;-93
2022/06/01 07:28:54;;;;;;;;;3.00;2.00;;;;;18.74;89.03;100493.28;5074198;28;45435;-94
2022/06/01 07:31:20;;;;;;;;;3.00;3.00;;;;;18.82;88.78;100480.06;5058372;28;47265;-93
2022/06/01 07:33:46;;;;;;;;;4.00;3.33;;;;;18.93;88.34;100489.00;5074651;28;45889;-91
2022/06/01 07:36:14;;;;;;;;;4.67;3.67;;;;;19.02;88.28;100497.94;5078817;28;45355;-93
2022/06/01 07:44:13;;;;;;;;;3.00;3.00;;;;;19.34;88.39;100488.34;5076685;28;45527;-96
2022/06/01 07:46:39;;;;;;;;;1.67;1.00;;;;;19.48;87.59;100494.63;5076709;28;45493;-96
2022/06/01 07:49:07;;;;;;;;;2.00;2.00;;;;;19.58;87.19;100508.00;5050922;28;45492;-96
2022/06/01 07:51:34;;;;;;;;;2.33;2.33;;;;;19.65;87.23;100501.81;5060634;28;47380;-96
2022/06/01 07:53:59;;;;;;;;;1.33;1.33;;;;;19.71;87.08;100496.50;5069625;28;45549;-96
2022/06/01 07:56:25;;;;;;;;;2.33;2.33;;;;;19.76;86.71;100497.41;5075272;28;45590;-95
2022/06/01 07:58:50;;;;;;;;;2.00;2.00;;;;;19.86;86.39;100497.44;5055139;28;45646;-94
2022/06/01 08:01:16;;;;;;;;;1.67;1.67;;;;;19.93;86.55;100498.31;5078338;27;45459;-96
2022/06/01 08:03:41;;;;;;;;;3.00;2.00;;;;;20.00;85.68;100505.44;5082312;28;45529;-96
2022/06/01 08:06:06;;;;;;;;;1.00;1.00;;;;;20.08;85.44;100505.47;5056818;28;45419;-95
2022/06/01 08:08:32;;;;;;;;;4.00;2.33;;;;;20.15;85.72;100503.75;5077768;28;45562;-95
2022/06/01 08:11:00;;;;;;;;;3.00;1.00;;;;;20.21;84.64;100512.63;5081531;28;46526;-96
2022/06/01 08:13:26;;;;;;;;;1.00;1.00;;;;;20.26;84.85;100504.63;5081977;28;45347;-96
2022/06/01 08:15:54;;;;;;;;;1.00;1.00;;;;;20.31;84.59;100500.19;5079054;28;45321;-96
2022/06/01 08:18:21;;;;;;;;;1.67;1.00;;;;;20.39;84.79;100502.88;5060761;28;45770;-96
2022/06/01 08:20:50;;;;;;;;;2.00;2.00;;;;;20.46;84.84;100505.56;5077603;28;47026;-96
2022/06/01 08:23:16;;;;;;;;;2.33;2.33;;;;;20.54;84.70;100503.75;5054697;28;45356;-96
2022/06/01 08:25:42;;;;;;;;;2.00;2.00;;;;;20.63;84.94;100501.09;5059768;28;45265;-96
2022/06/01 08:28:09;;;;;;;;;2.00;2.00;;;;;20.74;84.39;100503.78;5085877;28;45565;-96
2022/06/01 08:30:36;;;;;;;;;3.33;2.00;;;;;20.81;83.94;100501.97;5066180;28;46595;-96
2022/06/01 08:33:05;;;;;;;;;2.00;2.00;;;;;20.85;83.98;100501.06;5059406;28;45380;-96
2022/06/01 08:35:34;;;;;;;;;3.00;2.00;;;;;20.95;83.12;100511.75;5087089;28;45444;-96
2022/06/01 08:38:00;;;;;;;;;3.33;2.33;;;;;20.98;83.83;100501.94;5062853;28;45508;-96
2022/06/01 08:40:53;;;;;;;;;2.00;2.00;;;;;21.06;83.52;100512.63;5083422;28;45342;-96
2022/06/01 08:43:23;;;;;;;;;1.33;1.33;;;;;21.13;82.54;100508.16;5080265;27;45379;-96
2022/06/01 08:45:53;;;;;;;;;3.00;3.00;;;;;21.14;82.93;100509.94;5065839;28;45519;-96
2022/06/01 08:48:29;;;;;;;;;2.00;2.00;;;;;21.18;82.31;100511.69;5074961;28;45282;-96
2022/06/01 08:50:54;;;;;;;;;2.00;2.00;;;;;21.23;82.40;100519.72;5054669;28;47208;-96
2022/06/01 08:53:22;;;;;;;;;2.00;2.00;;;;;21.30;82.57;100512.56;5085141;28;45538;-96
2022/06/01 08:55:52;;;;;;;;;2.67;2.00;;;;;21.38;82.59;100510.75;5071169;28;45411;-96
2022/06/01 08:58:24;;;;;;;;;1.67;1.67;;;;;21.47;82.45;100519.59;5087796;28;45261;-96
2022/06/01 09:00:57;;;;;;;;;1.00;1.00;;;;;21.57;82.36;100510.66;5079756;28;45220;-96
2022/06/01 09:03:38;;;;;;;;;3.00;2.00;;;;;21.73;82.40;100514.16;5089227;28;45958;-96
2022/06/01 09:06:13;;;;;;;;;1.00;1.00;;;;;21.82;82.20;100505.22;5089675;28;45403;-96
2022/06/01 09:08:50;;;;;;;;;1.33;1.33;;;;;21.88;81.65;100513.22;5087031;28;45450;-96
2022/06/01 09:11:39;;;;;;;;;1.00;1.00;;;;;21.90;81.33;100521.25;5062791;28;46421;-96
2022/06/01 09:14:04;;;;;;;;;1.00;1.00;;;;;22.04;80.76;100538.97;5081463;28;44821;-96
2022/06/01 09:16:32;;;;;;;;;3.00;3.00;;;;;22.20;80.34;100547.78;5068837;28;44772;-96
2022/06/01 09:18:58;;;;;;;;;1.00;1.00;;;;;22.06;79.83;100546.06;5068769;28;45327;-96
2022/06/01 09:24:20;;;;;;;;;3.00;1.33;;;;;22.08;79.96;100551.44;5078702;28;45384;-96
2022/06/01 09:27:12;;;;;;;;;2.00;1.00;;;;;22.23;80.65;100547.78;5081506;28;45452;-96
2022/06/01 09:29:43;;;;;;;;;1.33;1.33;;;;;22.49;80.50;100544.03;5078087;28;45398;-96
2022/06/01 09:32:36;;;;;;;;;0.33;0.33;;;;;22.79;79.72;100546.47;5055055;28;46688;-96
2022/06/01 09:35:11;;;;;;;;;1.33;1.33;;;;;23.08;79.37;100564.06;5057779;28;44824;-96
2022/06/01 09:37:43;;;;;;;;;2.33;1.33;;;;;23.36;78.93;100628.94;5059470;28;45272;-96
2022/06/01 09:40:27;;;;;;;;;1.00;1.00;;;;;23.36;77.88;100696.75;5052313;28;44604;-96
2022/06/01 09:42:54;;;;;;;;;1.00;1.00;;;;;23.43;77.93;100759.19;5059772;28;45456;-96
2022/06/01 09:45:37;;;;;;;;;3.00;3.00;;;;;23.88;78.13;100795.44;5056665;28;45355;-96
2022/06/01 09:48:26;;;;;;;;;2.67;1.00;;;;;24.62;78.03;100849.22;5076410;28;44837;-96
2022/06/01 09:51:01;;;;;;;;;4.33;2.00;;;;;25.31;77.23;100911.91;5061089;28;45370;-96
2022/06/01 09:53:35;;;;;;;;;1.00;1.00;;;;;25.68;76.93;100972.31;5063054;28;46181;-96
2022/06/01 09:56:03;;;;;;;;;1.67;1.00;;;;;26.35;75.95;101010.75;5061713;28;44895;-96
2022/06/01 10:07:04;;;;;;;;;1.00;1.00;;;;;29.02;75.13;101115.72;5044666;28;45464;-96
2022/06/01 10:09:33;;;;;;;;;0.00;0.00;;;;;29.83;72.64;101160.44;5062626;28;45352;-96
2022/06/01 10:12:14;;;;;;;;;0.00;0.00;;;;;29.87;70.37;101200.88;5055066;28;44876;-96
2022/06/01 10:14:48;;;;;;;;;1.00;1.00;;;;;31.85;72.11;101177.31;5076820;28;47505;-96
2022/06/01 10:17:21;;;;;;;;;1.00;1.00;;;;;34.03;67.81;101243.59;5051858;28;45477;-96
2022/06/01 10:19:49;;;;;;;;;1.67;0.33;;;;;36.09;67.61;101240.63;5054120;28;45387;-96
2022/06/01 10:22:33;;;;;;;;;3.00;1.00;;;;;38.76;66.55;101252.00;5059327;28;45428;-96
2022/06/01 10:25:14;;;;;;;;;0.00;0.00;;;;;39.32;60.06;101282.19;5071252;28;46610;-96
2022/06/01 10:27:52;;;;;;;;;0.00;0.00;;;;;39.75;58.26;101300.25;5061666;28;45239;-95
2022/06/01 10:30:25;;;;;;;;;1.00;1.00;;;;;38.75;55.74;101304.22;5044507;28;45501;-96
2022/06/01 10:32:56;;;;;;;;;1.67;1.00;;;;;37.55;54.27;101306.16;5069558;28;45306;-96
2022/06/01 10:35:37;;;;;;;;;0.00;0.00;;;;;36.39;54.15;101306.41;5067399;28;47124;-96
2022/06/01 10:38:25;;;;;;;;;0.00;0.00;;;;;38.05;56.24;101298.63;5086567;28;45376;-96
2022/06/01 10:41:06;;;;;;;;;0.00;0.00;;;;;39.05;53.22;101305.00;5068024;28;45495;-96
2022/06/01 10:43:54;;;;;;;;;0.00;0.00;;;;;37.71;51.46;101307.06;5073610;28;44892;-96
2022/06/01 10:46:31;;;;;;;;;0.00;0.00;;;;;37.83;52.86;101298.09;5070677;27;47278;-96
2022/06/01 10:49:19;;;;;;;;;0.00;0.00;;;;;40.26;52.28;101294.84;5063319;28;44863;-96
2022/06/01 10:52:10;;;;;;;;;0.67;0.33;;;;;42.80;52.00;101298.28;5061023;28;45567;-96
2022/06/01 10:54:45;;;;;;;;;0.67;0.00;;;;;44.69;49.76;101297.50;5068614;28;45372;-96
2022/06/01 10:57:18;;;;;;;;;2.00;1.00;;;;;45.58;48.24;101306.81;5070096;28;48674;-96
2022/06/01 10:59:43;;;;;;;;;0.00;0.00;;;;;47.09;45.19;101313.19;5084561;28;45438;-96
2022/06/01 11:02:37;;;;;;;;;1.33;1.33;;;;;48.66;45.51;101304.16;5070111;28;45326;-96
2022/06/01 11:05:23;;;;;;;;;1.00;0.00;;;;;50.12;44.31;101309.25;5066334;28;44837;-96
2022/06/01 11:08:09;;;;;;;;;0.00;0.00;;;;;51.25;41.02;101307.09;5055104;28;46934;-96
2022/06/01 11:10:49;;;;;;;;;1.00;1.00;;;;;51.90;40.45;101295.41;5068603;28;45912;-96
2022/06/01 11:13:32;;;;;;;;;1.00;1.00;;;;;51.22;37.75;101304.69;5066763;28;45339;-96
2022/06/01 11:16:26;;;;;;;;;0.00;0.00;;;;;51.37;38.87;101308.38;5069851;28;45290;-96
2022/06/01 11:19:05;;;;;;;;;0.67;0.00;;;;;52.51;36.78;101284.94;5048694;28;47706;-96
2022/06/01 11:21:40;;;;;;;;;0.00;0.00;;;;;53.59;36.27;101294.50;5055699;28;45371;-96
2022/06/01 11:24:42;;;;;;;;;0.00;0.00;;;;;54.67;34.20;101295.97;5062473;28;45247;-96
2022/06/01 11:27:26;;;;;;;;;1.33;1.33;;;;;55.69;33.87;101295.91;5133280;22;45398;-96
2022/06/01 11:29:58;;;;;;;;;0.00;0.00;;;;;56.30;33.74;101283.53;5064753;28;45267;-96
2022/06/01 11:32:49;;;;;;;;;0.33;0.33;;;;;57.10;32.42;101289.63;5068915;28;45499;-96
2022/06/01 11:35:18;;;;;;;;;0.00;0.00;;;;;57.71;30.92;101299.41;4977003;28;45440;-96
2022/06/01 11:38:03;;;;;;;;;0.00;0.00;;;;;58.05;30.34;101285.72;4980252;28;45398;-96
2022/06/01 11:40:37;;;;;;;;;1.00;1.00;;;;;58.35;29.32;101289.63;4980685;28;46039;-96
2022/06/01 11:43:10;;;;;;;;;0.00;0.00;;;;;58.42;29.25;101286.72;4954970;28;45300;-96
2022/06/01 11:45:46;;;;;;;;;0.00;0.00;;;;;58.74;29.12;101281.88;4978041;28;45698;-96
2022/06/01 11:48:14;;;;;;;;;0.00;0.00;;;;;59.17;28.33;101284.63;4979163;28;45569;-96
2022/06/01 11:51:03;;;;;;;;;0.00;0.00;;;;;59.76;28.07;101285.63;4961921;28;47831;-96
2022/06/01 11:53:34;;;;;;;;;0.00;0.00;;;;;60.30;27.84;101287.22;4978435;28;45551;-96
2022/06/01 11:56:24;;;;;;;;;0.00;0.00;;;;;60.56;26.44;101287.69;4976883;28;45449;-96
2022/06/01 11:59:28;;;;;;;;;2.00;0.00;;;;;60.65;25.85;101275.94;4977448;28;45406;-96
2022/06/01 12:01:58;;;;;;;;;0.00;0.00;;;;;60.66;26.10;101277.66;4978979;28;47393;-96
2022/06/01 12:04:28;;;;;;;;;0.00;0.00;;;;;60.84;25.60;101270.84;4981574;28;45692;-96
2022/06/01 12:07:19;;;;;;;;;0.00;0.00;;;;;61.02;24.72;101286.75;4961852;28;45636;-96
2022/06/01 12:09:45;;;;;;;;;0.00;0.00;;;;;60.64;24.96;101275.06;4978112;28;45262;-96
2022/06/01 12:12:25;;;;;;;;;0.00;0.00;;;;;59.91;24.94;101279.41;5010416;28;45397;-96
2022/06/01 12:15:19;;;;;;;;;0.00;0.00;;;;;57.05;25.07;101276.25;5042095;28;45259;-96
2022/06/01 12:18:12;;;;;;;;;0.00;0.00;;;;;54.37;25.85;101272.81;5060140;28;45394;-96
2022/06/01 12:20:37;;;;;;;;;0.00;0.00;;;;;54.78;26.51;101272.88;5033789;28;45688;-96
2022/06/01 12:28:54;;;;;;;;;0.00;0.00;;;;;57.52;26.15;101259.91;5066939;28;45281;-96
2022/06/01 12:31:31;;;;;;;;;0.00;0.00;;;;;58.35;26.01;101269.03;5066994;28;45360;-96
2022/06/01 12:34:08;;;;;;;;;0.00;0.00;;;;;59.33;25.27;101275.34;5062778;28;46660;-96
2022/06/01 12:36:42;;;;;;;;;0.00;0.00;;;;;60.20;25.05;101273.75;5059427;28;45411;-96
2022/06/01 12:39:13;;;;;;;;;0.33;0.00;;;;;59.14;24.52;101269.00;5057530;28;45380;-96
2022/06/01 12:41:43;;;;;;;;;0.33;0.00;;;;;57.80;24.72;101260.44;5055938;28;45238;-96
2022/06/01 12:44:10;;;;;;;;;0.00;0.00;;;;;58.57;25.74;101269.34;5035542;28;47372;-95
2022/06/01 12:46:39;;;;;;;;;1.00;1.00;;;;;59.07;24.81;101276.75;5043733;28;45524;-96
2022/06/01 12:49:28;;;;;;;;;0.00;0.00;;;;;60.79;25.36;101273.63;5045596;28;45348;-96
2022/06/01 12:51:55;;;;;;;;;0.00;0.00;;;;;62.50;23.62;101270.31;5041448;28;45495;-96
2022/06/01 12:54:40;;;;;;;;;0.00;0.00;;;;;63.24;22.86;101274.47;5059394;28;45595;-96
2022/06/01 12:57:09;;;;;;;;;0.00;0.00;;;;;59.65;22.92;101271.25;5031338;28;45457;-96
2022/06/01 12:59:38;;;;;;;;;0.00;0.00;;;;;55.68;23.31;101264.09;5055510;28;45441;-95
2022/06/01 13:02:13;;;;;;;;;0.00;0.00;;;;;54.14;25.03;101262.81;5054137;28;45349;-96
2022/06/01 13:04:49;;;;;;;;;0.00;0.00;;;;;56.08;25.47;101266.97;5037959;28;46167;-96
2022/06/01 13:07:17;;;;;;;;;0.00;0.00;;;;;58.81;25.27;101268.50;5038851;28;45384;-96
2022/06/01 13:09:43;;;;;;;;;0.00;0.00;;;;;61.22;24.34;101270.25;5058195;28;45399;-96
2022/06/01 13:12:15;;;;;;;;;0.00;0.00;;;;;63.29;23.54;101279.31;5055901;28;45521;-96
2022/06/01 13:14:41;;;;;;;;;0.33;0.33;;;;;64.73;22.95;101276.13;5033801;28;46227;-96
2022/06/01 13:17:25;;;;;;;;;0.00;0.00;;;;;66.02;22.27;101286.44;5032252;28;45575;-96
2022/06/01 13:20:04;;;;;;;;;0.33;0.33;;;;;67.00;21.32;101282.94;5032652;28;45453;-96
2022/06/01 13:22:38;;;;;;;;;1.33;1.33;;;;;67.68;22.03;101267.75;5041089;28;45333;-95
2022/06/01 13:25:13;;;;;;;;;1.00;0.00;;;;;67.86;21.32;101280.38;5023947;28;47846;-96
2022/06/01 13:27:38;;;;;;;;;0.00;0.00;;;;;64.52;20.89;101261.06;5027817;28;45329;-96
2022/06/01 13:30:05;;;;;;;;;0.33;0.33;;;;;60.48;21.45;101245.63;5038744;28;45544;-96
2022/06/01 13:32:34;;;;;;;;;0.00;0.00;;;;;58.75;22.55;101255.31;5055562;28;45507;-96
2022/06/01 13:35:18;;;;;;;;;0.00;0.00;;;;;58.87;23.20;101252.53;5054428;28;45624;-96
2022/06/01 13:37:45;;;;;;;;;0.00;0.00;;;;;59.87;22.81;101245.09;5056698;28;45495;-96
2022/06/01 13:40:34;;;;;;;;;0.00;0.00;;;;;58.90;23.10;101257.69;5055038;28;45576;-96
2022/06/01 13:43:25;;;;;;;;;1.33;0.00;;;;;55.78;23.42;101249.56;5028652;28;45673;-96
2022/06/01 13:46:05;;;;;;;;;0.67;0.67;;;;;56.05;23.53;101242.94;5052709;28;46203;-96
2022/06/01 13:48:48;;;;;;;;;0.00;0.00;;;;;57.03;23.40;101249.38;5046625;28;45627;-96
2022/06/01 13:51:37;;;;;;;;;0.00;0.00;;;;;56.05;23.63;101255.09;5049911;28;45346;-96
2022/06/01 13:54:19;;;;;;;;;0.33;0.33;;;;;52.74;24.52;101246.59;4956803;28;45712;-96
2022/06/01 13:56:45;;;;;;;;;0.00;0.00;;;;;49.95;25.11;101236.75;4941904;28;45297;-96
2022/06/01 13:59:28;;;;;;;;;0.00;0.00;;;;;50.17;26.19;101242.59;4935152;28;45482;-96
2022/06/01 14:01:58;;;;;;;;;0.00;0.00;;;;;51.98;26.50;101235.69;4937951;28;45610;-96
2022/06/01 14:04:39;;;;;;;;;0.00;0.00;;;;;53.99;26.28;101234.06;4940308;28;45551;-96
2022/06/01 14:07:12;;;;;;;;;0.67;0.67;;;;;55.58;25.53;101229.94;4957571;28;46274;-96
2022/06/01 14:09:53;;;;;;;;;0.00;0.00;;;;;56.97;24.88;101230.56;4969660;28;45260;-96
2022/06/01 14:12:21;;;;;;;;;0.00;0.00;;;;;58.09;24.71;101237.25;4953735;28;45456;-96
2022/06/01 14:14:49;;;;;;;;;0.33;0.33;;;;;58.86;23.43;101243.19;4972336;28;45554;-96
2022/06/01 14:17:17;;;;;;;;;3.00;1.00;;;;;59.37;23.48;101253.09;4968572;28;47248;-96
2022/06/01 14:19:44;;;;;;;;;0.67;0.00;;;;;59.73;23.16;101253.00;4955721;28;45186;-96
2022/06/01 14:22:12;;;;;;;;;0.00;0.00;;;;;59.97;22.34;101258.59;4971246;28;45496;-96
2022/06/01 14:30:26;;;;;;;;;1.00;1.00;;;;;58.29;22.29;101236.97;5058375;28;45367;-96
2022/06/01 14:32:51;;;;;;;;;0.33;0.33;;;;;58.13;22.36;101233.69;5060090;28;44873;-96
2022/06/01 14:35:18;;;;;;;;;0.67;0.00;;;;;58.25;22.71;101242.22;5051843;28;45435;-95
2022/06/01 14:37:45;;;;;;;;;0.00;0.00;;;;;58.39;22.63;101264.59;5051725;28;47065;-96
2022/06/01 14:40:12;;;;;;;;;0.67;0.67;;;;;58.36;22.42;101253.78;5131235;23;46151;-96
2022/06/01 14:42:38;;;;;;;;;1.00;1.00;;;;;57.07;22.59;101230.88;5065402;28;45378;-96
2022/06/01 14:45:03;;;;;;;;;0.33;0.33;;;;;54.22;22.75;101244.03;5066024;28;45291;-96
2022/06/01 14:47:29;;;;;;;;;1.00;1.00;;;;;51.22;23.23;101257.19;5057891;28;48631;-95
2022/06/01 14:49:55;;;;;;;;;0.00;0.00;;;;;48.51;24.60;101256.63;5055406;28;45373;-96
2022/06/01 14:52:21;;;;;;;;;0.00;0.00;;;;;46.10;25.52;101245.38;5046208;28;45179;-96
2022/06/01 14:54:46;;;;;;;;;2.00;0.67;;;;;44.12;26.14;101251.06;5044155;28;45640;-96
2022/06/01 14:57:12;;;;;;;;;0.00;0.00;;;;;42.29;27.45;101261.00;5041735;28;51182;-95
2022/06/01 14:59:39;;;;;;;;;2.00;1.00;;;;;40.64;28.34;101270.13;5042362;28;44883;-94
2022/06/01 15:02:06;;;;;;;;;0.00;0.00;;;;;39.14;29.02;101259.63;5044445;28;45461;-95
2022/06/01 15:04:35;;;;;;;;;1.00;1.00;;;;;37.84;30.08;101272.47;5026566;28;45555;-88
2022/06/01 15:07:01;;;;;;;;;0.33;0.33;;;;;36.73;30.78;101268.97;5039861;28;48142;-93
2022/06/01 15:09:27;;;;;;;;;1.00;1.00;;;;;35.85;31.05;101271.00;5035697;28;45567;-92
2022/06/01 15:11:53;;;;;;;;;1.00;1.00;;;;;35.03;31.54;101268.84;5041186;28;45547;-89
2022/06/01 15:14:19;;;;;;;;;0.00;0.00;;;;;34.34;32.51;101273.03;5047264;28;45565;-90
2022/06/01 15:16:51;;;;;;;;;0.00;0.00;;;;;33.74;32.78;101272.06;5032206;28;47263;-90
2022/06/01 15:19:18;;;;;;;;;0.00;0.00;;;;;33.21;33.59;101274.31;5022397;28;46023;-90
2022/06/01 15:21:44;;;;;;;;;0.00;0.00;;;;;32.66;33.83;101265.66;5046764;28;45542;-89
2022/06/01 15:24:10;;;;;;;;;1.00;0.00;;;;;32.19;34.69;101271.03;5046241;28;50434;-90
2022/06/01 15:26:38;;;;;;;;;0.00;0.00;;;;;31.75;35.00;101269.03;5048491;28;45859;-89
2022/06/01 15:30:55;;;;;;;;;0.00;0.00;;;;;31.34;35.70;101267.69;5044084;28;45436;-90
2022/06/01 15:40:03;;;;;;;;;0.00;0.00;;;;;29.71;37.33;101264.44;5042566;28;45531;-89
2022/06/01 15:42:29;;;;;;;;;2.67;2.67;;;;;29.44;37.91;101271.41;5046150;28;45456;-90
2022/06/01 15:44:54;;;;;;;;;0.00;0.00;;;;;29.22;38.01;101274.66;5049690;28;45459;-90
2022/06/01 15:47:20;;;;;;;;;0.33;0.33;;;;;29.08;38.35;101268.69;5045167;28;47264;-90
2022/06/01 15:49:47;;;;;;;;;0.00;0.00;;;;;28.97;38.82;101275.25;5051620;28;45805;-90
2022/06/01 15:52:15;;;;;;;;;6.00;2.00;;;;;28.87;38.87;101271.88;5052374;28;45552;-89
2022/06/01 15:54:41;;;;;;;;;0.00;0.00;;;;;28.74;39.29;101264.97;5048199;28;45553;-90
2022/06/01 15:57:07;;;;;;;;;1.33;1.33;;;;;28.65;39.38;101250.78;5027374;28;48159;-89
2022/06/01 15:59:33;;;;;;;;;2.33;1.00;;;;;28.56;39.53;101257.28;5024787;28;46361;-90
2022/06/01 16:01:58;;;;;;;;;2.00;2.00;;;;;28.49;39.54;101254.75;5043577;28;45499;-89
2022/06/01 16:04:24;;;;;;;;;0.00;0.00;;;;;28.35;39.45;101255.88;5028295;28;45464;-89
2022/06/01 16:06:49;;;;;;;;;0.00;0.00;;;;;28.19;39.83;101248.13;5048787;28;45642;-89
2022/06/01 16:09:15;;;;;;;;;2.67;1.67;;;;;28.02;40.08;101250.28;5029952;28;46088;-90
2022/06/01 16:11:41;;;;;;;;;2.33;2.33;;;;;27.80;40.48;101248.03;5031707;28;45529;-90
2022/06/01 16:14:08;;;;;;;;;1.33;1.33;;;;;27.57;40.94;101258.31;5033199;28;45448;-89
2022/06/01 16:16:36;;;;;;;;;2.00;1.00;;;;;27.36;41.30;101255.06;5044021;28;46616;-90
2022/06/01 16:19:04;;;;;;;;;1.00;1.00;;;;;27.18;41.24;101254.47;5045851;28;45484;-89
2022/06/01 16:21:31;;;;;;;;;2.00;2.00;;;;;27.02;41.72;101245.72;5052830;28;45531;-90
2022/06/01 16:23:56;;;;;;;;;0.00;0.00;;;;;26.89;41.85;101253.09;5046122;28;45651;-89
2022/06/01 16:26:22;;;;;;;;;2.00;2.00;;;;;26.75;42.37;101251.47;5032406;28;53712;-90
2022/06/01 16:28:47;;;;;;;;;1.00;0.67;;;;;26.62;42.87;101247.22;5049383;28;49058;-90
2022/06/01 16:31:15;;;;;;;;;1.00;1.00;;;;;26.51;43.04;101247.34;5031885;28;49919;-89
2022/06/01 16:33:41;;;;;;;;;0.00;0.00;;;;;26.43;43.17;101240.28;5025414;28;45481;-90
2022/06/01 16:36:10;;;;;;;;;1.67;1.00;;;;;26.37;43.27;101250.19;5039053;28;45422;-89
2022/06/01 16:38:37;;;;;;;;;1.67;0.00;;;;;26.33;43.49;101231.41;5045179;28;45484;-91
2022/06/01 16:41:03;;;;;;;;;1.00;1.00;;;;;26.43;43.88;101242.97;5052155;28;45432;-90
2022/06/01 16:43:31;;;;;;;;;1.00;1.00;;;;;26.51;43.63;101241.97;5031486;28;45563;-91
2022/06/01 16:45:58;;;;;;;;;1.00;1.00;;;;;26.50;43.59;101234.78;5048106;28;45539;-91
2022/06/01 16:48:24;;;;;;;;;2.33;2.33;;;;;26.43;43.94;101233.97;5048593;28;45564;-90
2022/06/01 16:50:50;;;;;;;;;1.00;1.00;;;;;26.34;44.48;101241.25;5037905;28;45558;-92
2022/06/01 16:53:18;;;;;;;;;1.67;1.67;;;;;26.25;44.90;101236.00;5066171;28;44711;-89
2022/06/01 16:55:44;;;;;;;;;1.00;1.00;;;;;26.13;44.65;101239.75;5068106;28;47356;-88
2022/06/01 16:58:13;;;;;;;;;3.00;3.00;;;;;25.96;44.99;101232.75;5061587;28;45367;-89
2022/06/01 17:00:38;;;;;;;;;1.00;1.00;;;;;25.80;45.22;101234.72;5047375;28;45379;-91
2022/06/01 17:03:03;;;;;;;;;4.00;2.00;;;;;25.62;45.49;101235.75;5049846;28;45612;-88
2022/06/01 17:05:29;;;;;;;;;2.00;2.00;;;;;25.54;45.59;101244.81;5058189;28;45409;-91
2022/06/01 17:07:56;;;;;;;;;0.00;0.00;;;;;25.42;45.53;101229.69;5063333;28;45430;-90
2022/06/01 17:10:23;;;;;;;;;1.00;1.00;;;;;25.35;45.89;101238.72;5067629;28;44765;-96
2022/06/01 17:12:51;;;;;;;;;2.00;2.00;;;;;25.32;46.58;101249.50;5056914;28;44981;-96
2022/06/01 17:15:19;;;;;;;;;20.33;19.67;;;;;25.30;46.60;101248.63;5049325;28;46005;-96
2022/06/01 17:17:50;;;;;;;;;1.67;1.67;;;;;25.24;46.72;101246.88;5072820;28;45448;-96
2022/06/01 17:20:26;;;;;;;;;2.33;2.33;;;;;25.17;46.96;101229.03;5065818;28;45440;-96
2022/06/01 17:22:51;;;;;;;;;2.00;2.00;;;;;25.19;47.35;101249.59;5069033;28;45403;-94
2022/06/01 17:25:19;;;;;;;;;2.00;2.00;;;;;25.12;47.23;101253.25;5075624;28;45652;-96
2022/06/01 17:27:45;;;;;;;;;4.33;3.67;;;;;25.00;47.30;101243.44;5063209;28;44811;-96
2022/06/01 17:30:12;;;;;;;;;1.00;1.00;;;;;24.90;47.55;101242.59;5069635;28;45324;-96
2022/06/01 17:32:40;;;;;;;;;3.00;3.00;;;;;24.91;47.29;101254.25;5057264;28;44883;-96
2022/06/01 17:35:16;;;;;;;;;2.33;2.33;;;;;24.78;47.55;101241.81;5051559;28;46175;-96
2022/06/01 17:37:42;;;;;;;;;7.00;6.67;;;;;24.68;47.85;101237.41;5062286;28;44920;-96
2022/06/01 17:40:08;;;;;;;;;3.00;3.00;;;;;24.67;47.83;101244.53;5066988;28;44871;-96
2022/06/01 17:42:34;;;;;;;;;2.00;2.00;;;;;24.66;48.09;101250.78;5054766;28;44845;-96
2022/06/01 17:45:00;;;;;;;;;2.33;1.00;;;;;24.65;47.88;101254.41;5072882;28;47058;-96
2022/06/01 17:47:26;;;;;;;;;4.33;4.33;;;;;24.66;48.17;101255.31;5072912;28;46142;-96
2022/06/01 17:49:55;;;;;;;;;2.67;2.67;;;;;24.69;48.65;101252.56;5056167;28;44899;-96
2022/06/01 17:52:22;;;;;;;;;2.00;2.00;;;;;24.70;48.99;101262.41;5049786;28;45536;-94
2022/06/01 17:54:47;;;;;;;;;1.33;1.00;;;;;24.68;48.66;101269.59;5069321;28;45659;-94
2022/06/01 17:57:13;;;;;;;;;2.00;2.00;;;;;24.69;48.92;101281.22;5202336;22;46006;-96
2022/06/01 17:59:39;;;;;;;;;4.00;4.00;;;;;24.65;49.05;101273.19;5057911;28;44763;-95
2022/06/01 18:02:05;;;;;;;;;4.00;4.00;;;;;24.63;49.23;101280.38;5071790;28;45649;-96
2022/06/01 18:04:30;;;;;;;;;2.00;2.00;;;;;24.60;49.42;101287.53;5069357;28;45136;-94
2022/06/01 18:06:56;;;;;;;;;4.00;4.00;;;;;24.56;49.18;101289.31;5055332;28;45543;-96
2022/06/01 18:11:50;;;;;;;;;4.00;4.00;;;;;24.35;49.17;101285.84;5054293;28;46567;-96
2022/06/01 18:14:16;;;;;;;;;3.33;3.33;;;;;24.26;49.69;101289.44;5044676;28;47856;-95
2022/06/01 18:16:43;;;;;;;;;6.00;5.00;;;;;24.20;49.71;101292.09;5133316;22;45016;-96
2022/06/01 18:19:18;;;;;;;;;4.00;4.00;;;;;24.04;49.66;101281.44;5067803;28;45330;-96
2022/06/01 18:29:25;;;;;;;;;5.00;2.33;;;;;23.75;51.31;101290.44;5420235;22;46435;-95
2022/06/01 18:31:51;;;;;;;;;2.00;2.00;;;;;23.66;51.62;101294.00;5055926;27;45285;-94
2022/06/01 18:34:18;;;;;;;;;0.00;0.00;;;;;23.55;52.59;101288.66;5053061;28;46088;-95
2022/06/01 18:36:43;;;;;;;;;2.33;2.00;;;;;23.45;52.97;101279.72;5368290;22;45333;-96
2022/06/01 18:39:09;;;;;;;;;2.00;2.00;;;;;23.30;53.36;101288.59;5126295;22;45743;-94
2022/06/01 18:41:36;;;;;;;;;2.00;2.00;;;;;23.19;53.96;101285.94;5069785;28;45380;-94
2022/06/01 18:44:02;;;;;;;;;2.00;2.00;;;;;23.11;55.01;101272.53;5292811;23;48212;-93
2022/06/01 18:46:29;;;;;;;;;3.33;2.33;;;;;22.91;55.36;101261.81;5134791;22;45276;-96
2022/06/01 18:48:55;;;;;;;;;2.00;2.00;;;;;22.83;55.18;101269.81;5097690;28;45281;-96
2022/06/01 18:51:37;;;;;;;;;2.00;2.00;;;;;22.63;55.42;101258.13;5074070;28;45418;-96
2022/06/01 18:54:05;;;;;;;;;3.00;3.00;;;;;22.67;55.53;101275.09;5090426;28;45762;-96